Spirit Of Norfolk — WDD4552 — position and weather

sailwx.info

Track history (hours):
 
Tides and Currents Weather Stations Pressure Air Temp Water Temp Dewpoint Dewpoint Depression Visibility Wind Speed Wind Dir Waves Ship Positions

Spirit Of Norfolk

Owner: Spirit Cruises LLC, Norfolk, VA. More information available from US FCC via Universal Licensing System and Coast Guard Vessel Documentation Center.

Last reported at 2018-Apr-27 01:04 UTC. Time now 2018-Apr-27 02:24 UTC.
Position N 36°51' W 076°18'.

Length 52 m; draft 2.1 m.

Type: Passenger vessel. MMSI: 367146190.

Date/timePositionNaut miles runAvg speedWind from/ knotsBaromVisibWave heightAir tempDewpointWater temp
2018-Apr-27 01:04N 36°51' W 076°18'0 0.5
2018-Apr-27 01:00N 36°51' W 076°18'3 5.5
2018-Apr-27 00:30N 36°53' W 076°20'4 5.4
2018-Apr-26 23:45N 36°57' W 076°20'310.6
2018-Apr-26 23:30N 36°54' W 076°20'4 0.7
2018-Apr-26 17:55N 36°51' W 076°18'2 4.9
2018-Apr-26 17:30N 36°52' W 076°20'4 6.2
2018-Apr-26 16:46N 36°56' W 076°20'2 8.8
2018-Apr-26 16:30N 36°54' W 076°20'4 0.3
2018-Apr-26 01:01N 36°51' W 076°18'0 0.2
2018-Apr-26 00:58N 36°51' W 076°18'2 4.2
2018-Apr-26 00:29N 36°52' W 076°20'5 9.0
2018-Apr-25 23:53N 36°57' W 076°20'4 8.6
2018-Apr-25 23:26N 36°53' W 076°20'3 7.3
2018-Apr-25 22:58N 36°51' W 076°18'0 0.0
2018-Apr-25 17:52N 36°51' W 076°18'1 3.8
2018-Apr-25 17:30N 36°52' W 076°19'5 6.3
2018-Apr-25 16:43N 36°56' W 076°20'310.5
2018-Apr-25 16:27N 36°54' W 076°20'4 8.2
2018-Apr-25 16:00N 36°51' W 076°18'0 0.0
2018-Apr-25 00:57N 36°51' W 076°18'2 3.5
2018-Apr-25 00:30N 36°52' W 076°19'5 6.9
2018-Apr-24 23:46N 36°57' W 076°20'310.1
2018-Apr-24 23:30N 36°54' W 076°20'4 0.7
2018-Apr-24 17:57N 36°51' W 076°18'3 5.8
2018-Apr-24 17:30N 36°53' W 076°20'4 6.4
2018-Apr-24 16:48N 36°57' W 076°20'3 8.2
2018-Apr-24 16:28N 36°54' W 076°20'4 9.0
2018-Apr-24 16:00N 36°51' W 076°18'0 0.0
2018-Apr-24 15:25N 36°51' W 076°18'0 0.0
2018-Apr-24 14:55N 36°51' W 076°18'0 0.0
2018-Apr-24 14:25N 36°51' W 076°18'0 0.0
2018-Apr-23 16:05N 36°51' W 076°18'0 0.0
2018-Apr-23 15:59N 36°51' W 076°18'0 0.1
2018-Apr-23 15:30N 36°51' W 076°18'0 0.1
2018-Apr-23 15:01N 36°51' W 076°18'0 0.1
2018-Apr-23 14:31N 36°51' W 076°18'0 0.1
2018-Apr-23 14:00N 36°51' W 076°18'0 0.1
2018-Apr-23 13:31N 36°51' W 076°18'0 0.1
2018-Apr-23 13:00N 36°51' W 076°18'0 0.0
2018-Apr-23 12:30N 36°51' W 076°18'0 0.0
2018-Apr-22 23:56N 36°51' W 076°18'2 5.1
2018-Apr-22 23:30N 36°52' W 076°20'5 6.0
2018-Apr-22 22:43N 36°57' W 076°20'211.2
2018-Apr-22 22:30N 36°54' W 076°20'4 8.5
2018-Apr-22 22:00N 36°51' W 076°18'0 0.0
2018-Apr-22 18:55N 36°51' W 076°18'3 6.7
2018-Apr-22 18:27N 36°53' W 076°20'5 9.9
2018-Apr-22 18:00N 36°58' W 076°20'4 7.3
2018-Apr-22 17:29N 36°54' W 076°20'4 8.1
2018-Apr-22 17:00N 36°51' W 076°18'0 0.0
2018-Apr-22 06:02N 36°51' W 076°18'0 0.2
2018-Apr-22 06:00N 36°51' W 076°18'1 1.6
2018-Apr-22 05:30N 36°51' W 076°18'2 3.8
2018-Apr-22 05:00N 36°53' W 076°20'2 3.9
2018-Apr-22 04:30N 36°51' W 076°18'1 0.3
2018-Apr-22 01:59N 36°51' W 076°18'3 5.5
2018-Apr-22 01:30N 36°52' W 076°20'5 8.9
2018-Apr-22 00:58N 36°57' W 076°20'5 9.8
2018-Apr-22 00:30N 36°53' W 076°20'3 1.1
2018-Apr-21 22:01N 36°51' W 076°18'0 0.0
2018-Apr-21 22:00N 36°51' W 076°18'4 6.8
2018-Apr-21 21:29N 36°54' W 076°20'3 4.9
2018-Apr-21 20:49N 36°57' W 076°20'310.4
2018-Apr-21 20:28N 36°53' W 076°20'3 1.3
2018-Apr-21 17:54N 36°51' W 076°18'3 7.1
2018-Apr-21 17:30N 36°53' W 076°20'4 5.6
2018-Apr-21 16:47N 36°57' W 076°20'3 9.3
2018-Apr-21 16:30N 36°54' W 076°20'4 7.9
2018-Apr-21 16:00N 36°51' W 076°18'0 0.0
2018-Apr-21 15:20N 36°51' W 076°18'0 0.0
2018-Apr-21 14:59N 36°51' W 076°18'0 0.0
2018-Apr-21 05:57N 36°51' W 076°18'1 2.5
2018-Apr-21 05:30N 36°51' W 076°19'2 4.2
2018-Apr-21 05:00N 36°53' W 076°20'1 1.9
2018-Apr-21 04:30N 36°52' W 076°20'2 4.7
2018-Apr-21 04:00N 36°51' W 076°18'0 0.0
2018-Apr-21 02:01N 36°51' W 076°18'0 0.0
2018-Apr-21 01:58N 36°51' W 076°18'0 0.0
2018-Apr-21 01:28N 36°51' W 076°18'3 5.6
2018-Apr-21 01:00N 36°52' W 076°20'4 6.3
2018-Apr-21 00:20N 36°57' W 076°20'310.0
2018-Apr-21 00:00N 36°53' W 076°20'3 6.8
2018-Apr-20 23:30N 36°51' W 076°18'0 0.0
2018-Apr-20 23:00N 36°51' W 076°18'0 0.0
2018-Apr-20 22:30N 36°51' W 076°18'0 0.0
2018-Apr-20 22:00N 36°51' W 076°18'0 0.0
2018-Apr-20 04:52N 36°51' W 076°18'1 3.0
2018-Apr-20 04:30N 36°50' W 076°18'1 1.6
2018-Apr-20 04:00N 36°50' W 076°18'0 0.6
2018-Apr-20 03:28N 36°51' W 076°18'0 0.0
2018-Apr-20 02:58N 36°51' W 076°18'0 0.0
2018-Apr-20 02:28N 36°51' W 076°18'0 0.0
2018-Apr-20 01:58N 36°51' W 076°18'0 0.0
2018-Apr-20 01:28N 36°51' W 076°18'0 0.7
2018-Apr-20 01:00N 36°50' W 076°18'1 1.4
2018-Apr-20 00:30N 36°51' W 076°18'5 7.7
2018-Apr-19 23:54N 36°55' W 076°20'3 8.3
2018-Apr-19 23:30N 36°52' W 076°20'2 4.4
2018-Apr-19 23:00N 36°51' W 076°18'0 0.0
2018-Apr-19 22:26N 36°51' W 076°18'0 0.0
2018-Apr-19 21:59N 36°51' W 076°18'0 0.0
2018-Apr-19 17:01N 36°51' W 076°18'0 0.0
2018-Apr-19 17:00N 36°51' W 076°18'3 6.4
2018-Apr-19 16:30N 36°53' W 076°20'4 6.3
2018-Apr-19 15:57N 36°57' W 076°20'3 7.2
2018-Apr-19 15:30N 36°53' W 076°20'3 6.8
2018-Apr-19 15:00N 36°51' W 076°18'0 0.0
2018-Apr-18 17:01N 36°51' W 076°18'0 0.0
2018-Apr-18 17:00N 36°51' W 076°18'3 5.5
2018-Apr-18 16:31N 36°53' W 076°20'3 3.0
2018-Apr-18 15:38N 36°55' W 076°20'1 9.9
2018-Apr-18 15:30N 36°54' W 076°20'4 7.7
2018-Apr-18 15:01N 36°51' W 076°18'  
Track history (hours):
 
Tides and Currents Weather Stations Pressure Air Temp Water Temp Dewpoint Dewpoint Depression Visibility Wind Speed Wind Dir Waves Ship Positions

Spirit Of Norfolk

Owner: Spirit Cruises LLC, Norfolk, VA. More information available from US FCC via Universal Licensing System and Coast Guard Vessel Documentation Center.

Last reported at 2018-Apr-27 01:04 UTC. Time now 2018-Apr-27 02:24 UTC.
Position N 36°51' W 076°18'.

Length 52 m; draft 2.1 m.

Type: Passenger vessel. MMSI: 367146190.

Date/timePositionNaut miles runAvg speedWind from/ knotsBaromVisibWave heightAir tempDewpointWater temp
2018-Apr-27 01:04N 36°51' W 076°18'0 0.5
2018-Apr-27 01:00N 36°51' W 076°18'3 5.5
2018-Apr-27 00:30N 36°53' W 076°20'4 5.4
2018-Apr-26 23:45N 36°57' W 076°20'310.6
2018-Apr-26 23:30N 36°54' W 076°20'4 0.7
2018-Apr-26 17:55N 36°51' W 076°18'2 4.9
2018-Apr-26 17:30N 36°52' W 076°20'4 6.2
2018-Apr-26 16:46N 36°56' W 076°20'2 8.8
2018-Apr-26 16:30N 36°54' W 076°20'4 0.3
2018-Apr-26 01:01N 36°51' W 076°18'0 0.2
2018-Apr-26 00:58N 36°51' W 076°18'2 4.2
2018-Apr-26 00:29N 36°52' W 076°20'5 9.0
2018-Apr-25 23:53N 36°57' W 076°20'4 8.6
2018-Apr-25 23:26N 36°53' W 076°20'3 7.3
2018-Apr-25 22:58N 36°51' W 076°18'0 0.0
2018-Apr-25 17:52N 36°51' W 076°18'1 3.8
2018-Apr-25 17:30N 36°52' W 076°19'5 6.3
2018-Apr-25 16:43N 36°56' W 076°20'310.5
2018-Apr-25 16:27N 36°54' W 076°20'4 8.2
2018-Apr-25 16:00N 36°51' W 076°18'0 0.0
2018-Apr-25 00:57N 36°51' W 076°18'2 3.5
2018-Apr-25 00:30N 36°52' W 076°19'5 6.9
2018-Apr-24 23:46N 36°57' W 076°20'310.1
2018-Apr-24 23:30N 36°54' W 076°20'4 0.7
2018-Apr-24 17:57N 36°51' W 076°18'3 5.8
2018-Apr-24 17:30N 36°53' W 076°20'4 6.4
2018-Apr-24 16:48N 36°57' W 076°20'3 8.2
2018-Apr-24 16:28N 36°54' W 076°20'4 9.0
2018-Apr-24 16:00N 36°51' W 076°18'0 0.0
2018-Apr-24 15:25N 36°51' W 076°18'0 0.0
2018-Apr-24 14:55N 36°51' W 076°18'0 0.0
2018-Apr-24 14:25N 36°51' W 076°18'0 0.0
2018-Apr-23 16:05N 36°51' W 076°18'0 0.0
2018-Apr-23 15:59N 36°51' W 076°18'0 0.1
2018-Apr-23 15:30N 36°51' W 076°18'0 0.1
2018-Apr-23 15:01N 36°51' W 076°18'0 0.1
2018-Apr-23 14:31N 36°51' W 076°18'0 0.1
2018-Apr-23 14:00N 36°51' W 076°18'0 0.1
2018-Apr-23 13:31N 36°51' W 076°18'0 0.1
2018-Apr-23 13:00N 36°51' W 076°18'0 0.0
2018-Apr-23 12:30N 36°51' W 076°18'0 0.0
2018-Apr-22 23:56N 36°51' W 076°18'2 5.1
2018-Apr-22 23:30N 36°52' W 076°20'5 6.0
2018-Apr-22 22:43N 36°57' W 076°20'211.2
2018-Apr-22 22:30N 36°54' W 076°20'4 8.5
2018-Apr-22 22:00N 36°51' W 076°18'0 0.0
2018-Apr-22 18:55N 36°51' W 076°18'3 6.7
2018-Apr-22 18:27N 36°53' W 076°20'5 9.9
2018-Apr-22 18:00N 36°58' W 076°20'4 7.3
2018-Apr-22 17:29N 36°54' W 076°20'4 8.1
2018-Apr-22 17:00N 36°51' W 076°18'0 0.0
2018-Apr-22 06:02N 36°51' W 076°18'0 0.2
2018-Apr-22 06:00N 36°51' W 076°18'1 1.6
2018-Apr-22 05:30N 36°51' W 076°18'2 3.8
2018-Apr-22 05:00N 36°53' W 076°20'2 3.9
2018-Apr-22 04:30N 36°51' W 076°18'1 0.3
2018-Apr-22 01:59N 36°51' W 076°18'3 5.5
2018-Apr-22 01:30N 36°52' W 076°20'5 8.9
2018-Apr-22 00:58N 36°57' W 076°20'5 9.8
2018-Apr-22 00:30N 36°53' W 076°20'3 1.1
2018-Apr-21 22:01N 36°51' W 076°18'0 0.0
2018-Apr-21 22:00N 36°51' W 076°18'4 6.8
2018-Apr-21 21:29N 36°54' W 076°20'3 4.9
2018-Apr-21 20:49N 36°57' W 076°20'310.4
2018-Apr-21 20:28N 36°53' W 076°20'3 1.3
2018-Apr-21 17:54N 36°51' W 076°18'3 7.1
2018-Apr-21 17:30N 36°53' W 076°20'4 5.6
2018-Apr-21 16:47N 36°57' W 076°20'3 9.3
2018-Apr-21 16:30N 36°54' W 076°20'4 7.9
2018-Apr-21 16:00N 36°51' W 076°18'0 0.0
2018-Apr-21 15:20N 36°51' W 076°18'0 0.0
2018-Apr-21 14:59N 36°51' W 076°18'0 0.0
2018-Apr-21 05:57N 36°51' W 076°18'1 2.5
2018-Apr-21 05:30N 36°51' W 076°19'2 4.2
2018-Apr-21 05:00N 36°53' W 076°20'1 1.9
2018-Apr-21 04:30N 36°52' W 076°20'2 4.7
2018-Apr-21 04:00N 36°51' W 076°18'0 0.0
2018-Apr-21 02:01N 36°51' W 076°18'0 0.0
2018-Apr-21 01:58N 36°51' W 076°18'0 0.0
2018-Apr-21 01:28N 36°51' W 076°18'3 5.6
2018-Apr-21 01:00N 36°52' W 076°20'4 6.3
2018-Apr-21 00:20N 36°57' W 076°20'310.0
2018-Apr-21 00:00N 36°53' W 076°20'3 6.8
2018-Apr-20 23:30N 36°51' W 076°18'0 0.0
2018-Apr-20 23:00N 36°51' W 076°18'0 0.0
2018-Apr-20 22:30N 36°51' W 076°18'0 0.0
2018-Apr-20 22:00N 36°51' W 076°18'0 0.0
2018-Apr-20 04:52N 36°51' W 076°18'1 3.0
2018-Apr-20 04:30N 36°50' W 076°18'1 1.6
2018-Apr-20 04:00N 36°50' W 076°18'0 0.6
2018-Apr-20 03:28N 36°51' W 076°18'0 0.0
2018-Apr-20 02:58N 36°51' W 076°18'0 0.0
2018-Apr-20 02:28N 36°51' W 076°18'0 0.0
2018-Apr-20 01:58N 36°51' W 076°18'0 0.0
2018-Apr-20 01:28N 36°51' W 076°18'0 0.7
2018-Apr-20 01:00N 36°50' W 076°18'1 1.4
2018-Apr-20 00:30N 36°51' W 076°18'5 7.7
2018-Apr-19 23:54N 36°55' W 076°20'3 8.3
2018-Apr-19 23:30N 36°52' W 076°20'2 4.4
2018-Apr-19 23:00N 36°51' W 076°18'0 0.0
2018-Apr-19 22:26N 36°51' W 076°18'0 0.0
2018-Apr-19 21:59N 36°51' W 076°18'0 0.0
2018-Apr-19 17:01N 36°51' W 076°18'0 0.0
2018-Apr-19 17:00N 36°51' W 076°18'3 6.4
2018-Apr-19 16:30N 36°53' W 076°20'4 6.3
2018-Apr-19 15:57N 36°57' W 076°20'3 7.2
2018-Apr-19 15:30N 36°53' W 076°20'3 6.8
2018-Apr-19 15:00N 36°51' W 076°18'0 0.0
2018-Apr-18 17:01N 36°51' W 076°18'0 0.0
2018-Apr-18 17:00N 36°51' W 076°18'3 5.5
2018-Apr-18 16:31N 36°53' W 076°20'3 3.0
2018-Apr-18 15:38N 36°55' W 076°20'1 9.9
2018-Apr-18 15:30N 36°54' W 076°20'4 7.7
2018-Apr-18 15:01N 36°51' W 076°18'  

Dump ship's entire track history